BVX723 EGHQ-LSZH
Flight info
| Callsign | BVX723 |
|---|---|
| Flight time | N/A |
| Altitude | 39000 |
| Route | LND DCT LIZAD DCT JSY DCT ARSUK DCT RESMI UN491 POGZI DCT GELTA DCT MANAG DCT PEVIT DCT BLM |
| Aircraft | B77W/H-SDE1E2E3FGHIJ2J3J4J5M1RWXY/LB1D1 |
Departure
| Time | N/A |
|---|---|
| Airport | Cornwall Airport Newquay (EGHQ) |
Arrival
| Time | 2026-04-26 11:19 |
|---|---|
| Airport | Zürich Airport (LSZH) |
| Time | Latitude | Longitude | Altitude | Speed | Heading |
|---|---|---|---|---|---|
| 2026-04-26 10:11 | 50.93088 | -1.48850 | 39295 ft | 507 kts | 74° |
| 2026-04-26 10:11 | 50.94926 | -1.38062 | 39297 ft | 508 kts | 73° |
| 2026-04-26 10:12 | 50.96293 | -1.27059 | 39297 ft | 509 kts | 81° |
| 2026-04-26 10:12 | 50.97224 | -1.15925 | 39296 ft | 510 kts | 82° |
| 2026-04-26 10:13 | 50.98135 | -1.04767 | 39300 ft | 510 kts | 82° |
| 2026-04-26 10:13 | 50.99070 | -0.93608 | 39309 ft | 510 kts | 81° |
| 2026-04-26 10:14 | 51.00013 | -0.82455 | 39308 ft | 509 kts | 81° |
| 2026-04-26 10:14 | 51.00941 | -0.71387 | 39306 ft | 509 kts | 81° |
| 2026-04-26 10:15 | 51.01867 | -0.60183 | 39311 ft | 508 kts | 81° |
| 2026-04-26 10:15 | 51.02769 | -0.49128 | 39313 ft | 508 kts | 81° |
| 2026-04-26 10:16 | 51.03665 | -0.38005 | 39314 ft | 508 kts | 82° |
| 2026-04-26 10:16 | 51.04550 | -0.26883 | 39320 ft | 507 kts | 82° |
| 2026-04-26 10:17 | 51.05425 | -0.15752 | 39316 ft | 507 kts | 82° |
| 2026-04-26 10:17 | 51.06289 | -0.04626 | 39320 ft | 507 kts | 82° |
| 2026-04-26 10:18 | 51.07142 | 0.06505 | 39288 ft | 507 kts | 82° |
| 2026-04-26 10:18 | 51.07985 | 0.17638 | 39264 ft | 507 kts | 82° |
| 2026-04-26 10:19 | 51.08816 | 0.28770 | 39249 ft | 507 kts | 82° |
| 2026-04-26 10:19 | 51.09636 | 0.39895 | 39239 ft | 506 kts | 82° |
| 2026-04-26 10:20 | 51.10308 | 0.49124 | 39245 ft | 506 kts | 82° |
| 2026-04-26 10:20 | 51.11242 | 0.62126 | 39252 ft | 505 kts | 82° |
| 2026-04-26 10:21 | 51.12029 | 0.73240 | 39275 ft | 506 kts | 82° |
| 2026-04-26 10:21 | 51.12812 | 0.84443 | 39305 ft | 513 kts | 82° |
| 2026-04-26 10:22 | 51.13593 | 0.95787 | 39368 ft | 517 kts | 82° |
| 2026-04-26 10:22 | 51.14366 | 1.07192 | 39349 ft | 519 kts | 82° |
| 2026-04-26 10:23 | 51.15125 | 1.18552 | 39344 ft | 519 kts | 82° |
| 2026-04-26 10:23 | 51.15880 | 1.29988 | 39340 ft | 519 kts | 82° |
| 2026-04-26 10:24 | 51.16116 | 1.41467 | 39327 ft | 519 kts | 92° |
| 2026-04-26 10:24 | 51.15513 | 1.52976 | 39337 ft | 517 kts | 93° |
| 2026-04-26 10:25 | 51.14896 | 1.64278 | 39332 ft | 514 kts | 93° |
| 2026-04-26 10:25 | 51.14321 | 1.75617 | 39335 ft | 513 kts | 93° |
| 2026-04-26 10:26 | 51.13754 | 1.86912 | 39333 ft | 512 kts | 93° |
| 2026-04-26 10:26 | 51.13173 | 1.98198 | 39333 ft | 511 kts | 93° |
| 2026-04-26 10:27 | 51.12577 | 2.09475 | 39324 ft | 511 kts | 93° |
| 2026-04-26 10:27 | 51.11969 | 2.20762 | 39327 ft | 512 kts | 93° |
| 2026-04-26 10:28 | 51.11351 | 2.32036 | 39335 ft | 512 kts | 93° |
| 2026-04-26 10:28 | 51.10721 | 2.43341 | 39341 ft | 513 kts | 93° |
| 2026-04-26 10:29 | 51.10081 | 2.54654 | 39335 ft | 513 kts | 94° |
| 2026-04-26 10:29 | 51.08698 | 2.65793 | 39340 ft | 516 kts | 107° |
| 2026-04-26 10:30 | 51.05915 | 2.76310 | 39338 ft | 517 kts | 117° |
| 2026-04-26 10:30 | 51.02500 | 2.86382 | 39341 ft | 518 kts | 118° |
| 2026-04-26 10:31 | 50.99064 | 2.96426 | 39341 ft | 518 kts | 118° |
| 2026-04-26 10:31 | 50.95654 | 3.06499 | 39333 ft | 518 kts | 118° |
| 2026-04-26 10:32 | 50.92263 | 3.16566 | 39326 ft | 518 kts | 118° |
| 2026-04-26 10:32 | 50.88890 | 3.26552 | 39325 ft | 517 kts | 118° |
| 2026-04-26 10:33 | 50.85485 | 3.36586 | 39327 ft | 517 kts | 118° |
| 2026-04-26 10:33 | 50.82073 | 3.46591 | 39313 ft | 517 kts | 118° |
| 2026-04-26 10:34 | 50.78654 | 3.56576 | 39326 ft | 516 kts | 118° |
| 2026-04-26 10:34 | 50.75230 | 3.66539 | 39310 ft | 516 kts | 118° |
| 2026-04-26 10:35 | 50.71797 | 3.76483 | 39327 ft | 516 kts | 119° |
| 2026-04-26 10:35 | 50.68391 | 3.86303 | 39294 ft | 496 kts | 119° |
| 2026-04-26 10:36 | 50.66761 | 3.90994 | 39286 ft | 480 kts | 119° |
| 2026-04-26 10:36 | 50.65180 | 3.95539 | 39288 ft | 466 kts | 119° |
| 2026-04-26 10:36 | 50.62074 | 4.04438 | 39309 ft | 468 kts | 119° |
| 2026-04-26 10:37 | 50.58883 | 4.13547 | 39314 ft | 481 kts | 119° |
| 2026-04-26 10:37 | 50.55642 | 4.22769 | 39309 ft | 481 kts | 119° |
| 2026-04-26 10:38 | 50.52399 | 4.31964 | 39314 ft | 480 kts | 119° |
| 2026-04-26 10:38 | 50.49158 | 4.41120 | 39315 ft | 478 kts | 119° |
| 2026-04-26 10:39 | 50.45924 | 4.50222 | 39315 ft | 476 kts | 119° |
| 2026-04-26 10:39 | 50.42695 | 4.59280 | 39316 ft | 475 kts | 119° |
| 2026-04-26 10:40 | 50.39469 | 4.68298 | 39310 ft | 474 kts | 120° |
| 2026-04-26 10:40 | 50.36245 | 4.77277 | 39298 ft | 473 kts | 120° |
| 2026-04-26 10:41 | 50.33015 | 4.86239 | 39297 ft | 473 kts | 120° |
| 2026-04-26 10:41 | 50.29779 | 4.95189 | 39301 ft | 473 kts | 120° |
| 2026-04-26 10:42 | 50.27080 | 5.02627 | 39278 ft | 473 kts | 120° |
| 2026-04-26 10:42 | 50.23296 | 5.13024 | 39284 ft | 474 kts | 120° |
| 2026-04-26 10:43 | 50.20029 | 5.21965 | 39275 ft | 474 kts | 120° |
| 2026-04-26 10:43 | 50.16751 | 5.30906 | 39288 ft | 475 kts | 120° |
| 2026-04-26 10:44 | 50.13441 | 5.39901 | 39283 ft | 475 kts | 120° |
| 2026-04-26 10:44 | 50.10167 | 5.48771 | 39271 ft | 475 kts | 120° |
| 2026-04-26 10:45 | 50.06868 | 5.57676 | 39263 ft | 475 kts | 121° |
| 2026-04-26 10:45 | 50.03564 | 5.66565 | 39264 ft | 474 kts | 121° |
| 2026-04-26 10:46 | 50.00261 | 5.75419 | 39247 ft | 473 kts | 121° |
| 2026-04-26 10:46 | 49.97492 | 5.82819 | 39267 ft | 473 kts | 121° |
| 2026-04-26 10:47 | 49.94183 | 5.91636 | 39247 ft | 472 kts | 121° |
| 2026-04-26 10:47 | 49.90895 | 6.00374 | 39264 ft | 472 kts | 121° |
| 2026-04-26 10:48 | 49.87440 | 6.08997 | 39248 ft | 469 kts | 131° |
| 2026-04-26 10:48 | 49.85156 | 6.12570 | 39271 ft | 466 kts | 142° |
| 2026-04-26 10:48 | 49.82515 | 6.15459 | 39250 ft | 464 kts | 152° |
| 2026-04-26 10:49 | 49.76651 | 6.19481 | 39267 ft | 462 kts | 160° |
| 2026-04-26 10:49 | 49.70705 | 6.23289 | 39271 ft | 463 kts | 159° |
| 2026-04-26 10:50 | 49.64769 | 6.27187 | 39267 ft | 464 kts | 159° |
| 2026-04-26 10:50 | 49.58825 | 6.31131 | 39272 ft | 466 kts | 159° |
| 2026-04-26 10:51 | 49.49896 | 6.37038 | 39261 ft | 465 kts | 159° |
| 2026-04-26 10:52 | 49.43948 | 6.40980 | 39258 ft | 465 kts | 158° |
| 2026-04-26 10:52 | 49.38033 | 6.45017 | 39253 ft | 465 kts | 158° |
| 2026-04-26 10:53 | 49.32132 | 6.49051 | 39244 ft | 464 kts | 158° |
| 2026-04-26 10:53 | 49.26234 | 6.53056 | 39248 ft | 463 kts | 158° |
| 2026-04-26 10:54 | 49.17395 | 6.59026 | 39259 ft | 463 kts | 158° |
| 2026-04-26 10:54 | 49.11505 | 6.62993 | 39247 ft | 462 kts | 158° |
| 2026-04-26 10:55 | 49.05621 | 6.66947 | 39245 ft | 462 kts | 158° |
| 2026-04-26 10:55 | 48.99739 | 6.70888 | 39249 ft | 462 kts | 158° |
| 2026-04-26 10:56 | 48.93813 | 6.74644 | 39251 ft | 461 kts | 161° |
| 2026-04-26 10:56 | 48.87816 | 6.78133 | 39222 ft | 461 kts | 161° |
| 2026-04-26 10:57 | 48.81821 | 6.81612 | 39243 ft | 462 kts | 161° |
| 2026-04-26 10:57 | 48.75828 | 6.85128 | 39252 ft | 462 kts | 161° |
| 2026-04-26 10:58 | 48.69826 | 6.88662 | 39242 ft | 463 kts | 161° |
| 2026-04-26 10:58 | 48.63819 | 6.92194 | 39249 ft | 463 kts | 161° |
| 2026-04-26 10:59 | 48.57882 | 6.95677 | 38887 ft | 452 kts | 161° |
| 2026-04-26 10:59 | 48.54941 | 6.97396 | 38129 ft | 454 kts | 161° |
| 2026-04-26 10:59 | 48.51981 | 6.99123 | 37276 ft | 459 kts | 161° |
| 2026-04-26 11:00 | 48.48993 | 7.00864 | 36500 ft | 462 kts | 161° |
| 2026-04-26 11:00 | 48.45992 | 7.02611 | 35800 ft | 463 kts | 161° |
| 2026-04-26 11:00 | 48.42980 | 7.04363 | 35100 ft | 464 kts | 161° |
| 2026-04-26 11:00 | 48.39965 | 7.06115 | 34453 ft | 465 kts | 161° |
| 2026-04-26 11:01 | 48.36949 | 7.07866 | 33716 ft | 465 kts | 161° |
| 2026-04-26 11:01 | 48.33926 | 7.09618 | 32899 ft | 466 kts | 161° |
| 2026-04-26 11:01 | 48.30896 | 7.11372 | 32044 ft | 468 kts | 161° |
| 2026-04-26 11:01 | 48.27850 | 7.13132 | 31195 ft | 470 kts | 161° |
| 2026-04-26 11:02 | 48.24829 | 7.14876 | 30340 ft | 472 kts | 161° |
| 2026-04-26 11:02 | 48.21716 | 7.16672 | 29256 ft | 475 kts | 161° |
| 2026-04-26 11:02 | 48.18630 | 7.18448 | 28356 ft | 474 kts | 161° |
| 2026-04-26 11:02 | 48.15572 | 7.20207 | 27732 ft | 468 kts | 161° |
| 2026-04-26 11:03 | 48.12552 | 7.21944 | 27154 ft | 461 kts | 161° |
| 2026-04-26 11:03 | 48.09612 | 7.23634 | 26480 ft | 457 kts | 161° |
| 2026-04-26 11:03 | 48.06607 | 7.25356 | 25788 ft | 455 kts | 161° |
| 2026-04-26 11:03 | 48.03704 | 7.27017 | 25193 ft | 450 kts | 161° |
| 2026-04-26 11:04 | 48.00793 | 7.28681 | 24591 ft | 446 kts | 161° |
| 2026-04-26 11:04 | 47.97906 | 7.30328 | 23991 ft | 443 kts | 161° |
| 2026-04-26 11:04 | 47.95041 | 7.31962 | 23342 ft | 439 kts | 161° |
| 2026-04-26 11:04 | 47.92198 | 7.33582 | 22666 ft | 436 kts | 161° |
| 2026-04-26 11:05 | 47.89381 | 7.35184 | 22025 ft | 432 kts | 161° |
| 2026-04-26 11:05 | 47.86581 | 7.36775 | 21412 ft | 429 kts | 161° |
| 2026-04-26 11:05 | 47.83804 | 7.38351 | 20792 ft | 426 kts | 161° |
| 2026-04-26 11:05 | 47.81051 | 7.39912 | 20199 ft | 423 kts | 161° |
| 2026-04-26 11:06 | 47.78311 | 7.41465 | 19616 ft | 420 kts | 161° |
| 2026-04-26 11:06 | 47.75590 | 7.43004 | 19063 ft | 417 kts | 161° |
| 2026-04-26 11:06 | 47.72899 | 7.44526 | 18504 ft | 409 kts | 161° |
| 2026-04-26 11:06 | 47.70283 | 7.46005 | 17495 ft | 398 kts | 161° |
| 2026-04-26 11:07 | 47.67708 | 7.47456 | 16329 ft | 395 kts | 160° |
| 2026-04-26 11:07 | 47.65234 | 7.49079 | 15706 ft | 385 kts | 149° |
| 2026-04-26 11:07 | 47.63268 | 7.51742 | 15118 ft | 385 kts | 128° |
| 2026-04-26 11:07 | 47.61952 | 7.55175 | 14548 ft | 383 kts | 111° |
| 2026-04-26 11:08 | 47.61101 | 7.58881 | 14227 ft | 375 kts | 108° |
| 2026-04-26 11:08 | 47.60309 | 7.62485 | 14135 ft | 358 kts | 108° |
| 2026-04-26 11:08 | 47.59548 | 7.65860 | 13863 ft | 336 kts | 108° |
| 2026-04-26 11:08 | 47.58807 | 7.69070 | 13348 ft | 325 kts | 109° |
| 2026-04-26 11:09 | 47.58073 | 7.72198 | 12738 ft | 319 kts | 108° |
| 2026-04-26 11:09 | 47.57352 | 7.75262 | 12242 ft | 312 kts | 109° |
| 2026-04-26 11:09 | 47.56644 | 7.78271 | 11626 ft | 308 kts | 108° |
| 2026-04-26 11:09 | 47.55937 | 7.81265 | 11008 ft | 310 kts | 109° |
| 2026-04-26 11:10 | 47.55223 | 7.84288 | 10611 ft | 310 kts | 109° |
| 2026-04-26 11:10 | 47.54519 | 7.87268 | 10495 ft | 302 kts | 109° |
| 2026-04-26 11:10 | 47.53834 | 7.90164 | 10244 ft | 297 kts | 109° |
| 2026-04-26 11:10 | 47.53159 | 7.93007 | 9896 ft | 286 kts | 109° |
| 2026-04-26 11:11 | 47.52518 | 7.95716 | 9561 ft | 273 kts | 109° |
| 2026-04-26 11:11 | 47.51893 | 7.98347 | 9267 ft | 270 kts | 109° |
| 2026-04-26 11:11 | 47.51266 | 8.00977 | 8975 ft | 272 kts | 109° |
| 2026-04-26 11:11 | 47.50796 | 8.03640 | 8659 ft | 266 kts | 90° |
| 2026-04-26 11:12 | 47.51163 | 8.06282 | 8372 ft | 262 kts | 67° |
| 2026-04-26 11:12 | 47.51917 | 8.08737 | 8103 ft | 264 kts | 65° |
| 2026-04-26 11:12 | 47.52681 | 8.11236 | 7795 ft | 268 kts | 66° |
| 2026-04-26 11:12 | 47.53442 | 8.13725 | 7488 ft | 261 kts | 66° |
| 2026-04-26 11:13 | 47.54181 | 8.16142 | 7130 ft | 252 kts | 66° |
| 2026-04-26 11:13 | 47.54883 | 8.18442 | 7001 ft | 238 kts | 66° |
| 2026-04-26 11:13 | 47.55551 | 8.20645 | 6571 ft | 239 kts | 67° |
| 2026-04-26 11:13 | 47.56223 | 8.22880 | 6191 ft | 234 kts | 66° |
| 2026-04-26 11:14 | 47.56878 | 8.25062 | 5875 ft | 231 kts | 66° |
| 2026-04-26 11:14 | 47.57527 | 8.27195 | 5591 ft | 223 kts | 66° |
| 2026-04-26 11:14 | 47.58143 | 8.29227 | 5341 ft | 210 kts | 66° |
| 2026-04-26 11:14 | 47.58527 | 8.30508 | 5256 ft | 201 kts | 66° |
| 2026-04-26 11:15 | 47.59272 | 8.32976 | 4924 ft | 191 kts | 65° |
| 2026-04-26 11:15 | 47.59791 | 8.34742 | 4700 ft | 183 kts | 72° |
| 2026-04-26 11:15 | 47.59864 | 8.36608 | 4490 ft | 185 kts | 107° |
| 2026-04-26 11:15 | 47.59136 | 8.38186 | 4300 ft | 189 kts | 130° |
| 2026-04-26 11:16 | 47.58281 | 8.39632 | 4139 ft | 189 kts | 129° |
| 2026-04-26 11:16 | 47.57349 | 8.41066 | 3862 ft | 192 kts | 131° |
| 2026-04-26 11:16 | 47.56400 | 8.42391 | 3649 ft | 183 kts | 134° |
| 2026-04-26 11:16 | 47.55485 | 8.43639 | 3394 ft | 180 kts | 135° |
| 2026-04-26 11:17 | 47.54592 | 8.44870 | 3181 ft | 169 kts | 135° |
| 2026-04-26 11:17 | 47.53767 | 8.45997 | 2971 ft | 151 kts | 134° |
| 2026-04-26 11:17 | 47.53039 | 8.46995 | 2778 ft | 143 kts | 134° |
| 2026-04-26 11:17 | 47.52268 | 8.48029 | 2552 ft | 150 kts | 133° |
| 2026-04-26 11:18 | 47.51521 | 8.49067 | 2360 ft | 146 kts | 132° |
| 2026-04-26 11:18 | 47.50808 | 8.50055 | 2177 ft | 142 kts | 131° |
| 2026-04-26 11:18 | 47.50084 | 8.51047 | 1954 ft | 140 kts | 131° |
| 2026-04-26 11:18 | 47.49361 | 8.52024 | 1742 ft | 140 kts | 134° |
| 2026-04-26 11:19 | 47.48639 | 8.53012 | 1589 ft | 144 kts | 134° |
| 2026-04-26 11:19 | 47.47892 | 8.54038 | 1418 ft | 146 kts | 136° |
| 2026-04-26 11:19 | 47.47212 | 8.54975 | 1405 ft | 118 kts | 137° |
| 2026-04-26 11:19 | 47.46799 | 8.55530 | 1413 ft | 35 kts | 141° |
| 2026-04-26 11:20 | 47.46563 | 8.55688 | 1406 ft | 31 kts | 167° |
| 2026-04-26 11:20 | 47.46454 | 8.55726 | 1409 ft | 19 kts | 166° |
| 2026-04-26 11:20 | 47.46322 | 8.55841 | 1410 ft | 9 kts | 137° |
| 2026-04-26 11:20 | 47.46277 | 8.55901 | 1411 ft | 6 kts | 137° |
| 2026-04-26 11:21 | 47.46270 | 8.55910 | 1411 ft | 1 kts | 137° |
| 2026-04-26 11:21 | 47.46264 | 8.55915 | 1411 ft | 1 kts | 151° |
| 2026-04-26 11:21 | 47.46256 | 8.55915 | 1409 ft | 1 kts | 180° |
| 2026-04-26 11:21 | 47.46248 | 8.55909 | 1409 ft | 1 kts | 210° |
| 2026-04-26 11:22 | 47.46242 | 8.55897 | 1411 ft | 3 kts | 234° |
| 2026-04-26 11:22 | 47.46232 | 8.55823 | 1405 ft | 9 kts | 270° |
| 2026-04-26 11:22 | 47.46237 | 8.55730 | 1403 ft | 10 kts | 275° |
| 2026-04-26 11:22 | 47.46244 | 8.55637 | 1402 ft | 5 kts | 277° |
| 2026-04-26 11:23 | 47.46249 | 8.55573 | 1408 ft | 7 kts | 276° |
| 2026-04-26 11:23 | 47.46255 | 8.55490 | 1408 ft | 9 kts | 276° |
| 2026-04-26 11:23 | 47.46259 | 8.55425 | 1406 ft | 6 kts | 275° |
| 2026-04-26 11:23 | 47.46265 | 8.55358 | 1406 ft | 7 kts | 276° |
| 2026-04-26 11:24 | 47.46242 | 8.55307 | 1410 ft | 6 kts | 205° |
| 2026-04-26 11:24 | 47.46215 | 8.55296 | 1410 ft | 3 kts | 192° |
| 2026-04-26 11:24 | 47.46203 | 8.55293 | 1402 ft | 0 kts | 189° |